sensor_id;sensor_type;location;lat;lon;timestamp;temperature;humidity
39315;DHT22;28703;44.412;11.918;2023-10-08T00:01:09;19.00;97.20
39315;DHT22;28703;44.412;11.918;2023-10-08T00:03:45;19.00;97.30
39315;DHT22;28703;44.412;11.918;2023-10-08T00:06:20;19.00;97.30
39315;DHT22;28703;44.412;11.918;2023-10-08T00:08:46;19.00;97.40
39315;DHT22;28703;44.412;11.918;2023-10-08T00:11:12;19.00;97.70
39315;DHT22;28703;44.412;11.918;2023-10-08T00:13:42;19.00;97.50
39315;DHT22;28703;44.412;11.918;2023-10-08T00:16:11;19.00;97.50
39315;DHT22;28703;44.412;11.918;2023-10-08T00:18:41;19.00;97.50
39315;DHT22;28703;44.412;11.918;2023-10-08T00:21:18;19.00;97.30
39315;DHT22;28703;44.412;11.918;2023-10-08T00:23:46;19.00;97.30
39315;DHT22;28703;44.412;11.918;2023-10-08T00:26:32;18.90;97.30
39315;DHT22;28703;44.412;11.918;2023-10-08T00:29:04;19.00;97.60
39315;DHT22;28703;44.412;11.918;2023-10-08T00:31:43;19.00;98.00
39315;DHT22;28703;44.412;11.918;2023-10-08T00:34:14;18.90;98.10
39315;DHT22;28703;44.412;11.918;2023-10-08T00:36:44;18.90;98.20
39315;DHT22;28703;44.412;11.918;2023-10-08T00:39:12;18.90;98.40
39315;DHT22;28703;44.412;11.918;2023-10-08T00:41:49;18.90;98.50
39315;DHT22;28703;44.412;11.918;2023-10-08T00:44:15;18.90;98.50
39315;DHT22;28703;44.412;11.918;2023-10-08T00:46:48;18.90;98.50
39315;DHT22;28703;44.412;11.918;2023-10-08T00:49:20;18.90;98.50
39315;DHT22;28703;44.412;11.918;2023-10-08T00:51:48;19.00;98.50
39315;DHT22;28703;44.412;11.918;2023-10-08T00:54:22;19.00;98.40
39315;DHT22;28703;44.412;11.918;2023-10-08T00:56:50;19.00;98.30
39315;DHT22;28703;44.412;11.918;2023-10-08T00:59:23;19.00;98.20
39315;DHT22;28703;44.412;11.918;2023-10-08T01:01:51;19.00;98.10
39315;DHT22;28703;44.412;11.918;2023-10-08T01:04:21;18.90;98.10
39315;DHT22;28703;44.412;11.918;2023-10-08T01:07:02;18.90;98.10
39315;DHT22;28703;44.412;11.918;2023-10-08T01:09:36;18.90;98.20
39315;DHT22;28703;44.412;11.918;2023-10-08T01:14:54;18.90;98.10
39315;DHT22;28703;44.412;11.918;2023-10-08T01:17:22;18.80;98.10
39315;DHT22;28703;44.412;11.918;2023-10-08T01:19:52;18.80;98.20
39315;DHT22;28703;44.412;11.918;2023-10-08T01:22:35;18.80;98.20
39315;DHT22;28703;44.412;11.918;2023-10-08T01:25:05;18.80;98.10
39315;DHT22;28703;44.412;11.918;2023-10-08T01:27:31;18.80;98.10
39315;DHT22;28703;44.412;11.918;2023-10-08T01:30:01;18.70;98.00
39315;DHT22;28703;44.412;11.918;2023-10-08T01:32:46;18.70;98.00
39315;DHT22;28703;44.412;11.918;2023-10-08T01:35:12;18.70;98.00
39315;DHT22;28703;44.412;11.918;2023-10-08T01:37:50;18.70;98.10
39315;DHT22;28703;44.412;11.918;2023-10-08T01:40:17;18.60;98.10
39315;DHT22;28703;44.412;11.918;2023-10-08T01:42:43;18.60;98.30
39315;DHT22;28703;44.412;11.918;2023-10-08T01:45:09;18.60;98.40
39315;DHT22;28703;44.412;11.918;2023-10-08T01:47:38;18.60;98.50
39315;DHT22;28703;44.412;11.918;2023-10-08T01:50:04;18.60;98.40
39315;DHT22;28703;44.412;11.918;2023-10-08T01:52:33;18.60;98.70
39315;DHT22;28703;44.412;11.918;2023-10-08T01:55:00;18.60;98.40
39315;DHT22;28703;44.412;11.918;2023-10-08T01:57:26;18.50;98.50
39315;DHT22;28703;44.412;11.918;2023-10-08T01:59:51;18.50;98.70
39315;DHT22;28703;44.412;11.918;2023-10-08T02:02:17;18.50;98.80
39315;DHT22;28703;44.412;11.918;2023-10-08T02:04:43;18.50;99.10
39315;DHT22;28703;44.412;11.918;2023-10-08T02:07:09;18.50;99.30
39315;DHT22;28703;44.412;11.918;2023-10-08T02:09:39;18.50;99.30
39315;DHT22;28703;44.412;11.918;2023-10-08T02:12:05;18.40;99.30
39315;DHT22;28703;44.412;11.918;2023-10-08T02:14:31;18.40;99.40
39315;DHT22;28703;44.412;11.918;2023-10-08T02:16:58;18.40;99.70
39315;DHT22;28703;44.412;11.918;2023-10-08T02:19:32;18.40;99.70
39315;DHT22;28703;44.412;11.918;2023-10-08T02:21:58;18.40;99.80
39315;DHT22;28703;44.412;11.918;2023-10-08T02:24:25;18.40;99.80
39315;DHT22;28703;44.412;11.918;2023-10-08T02:26:52;18.40;99.90
39315;DHT22;28703;44.412;11.918;2023-10-08T02:29:18;18.30;99.90
39315;DHT22;28703;44.412;11.918;2023-10-08T02:31:44;18.30;99.90
39315;DHT22;28703;44.412;11.918;2023-10-08T02:34:10;18.30;99.90
39315;DHT22;28703;44.412;11.918;2023-10-08T02:36:38;18.30;99.90
39315;DHT22;28703;44.412;11.918;2023-10-08T02:39:07;18.30;99.90
39315;DHT22;28703;44.412;11.918;2023-10-08T02:41:52;18.30;99.90
39315;DHT22;28703;44.412;11.918;2023-10-08T02:44:18;18.30;99.90
39315;DHT22;28703;44.412;11.918;2023-10-08T02:46:47;18.20;99.90
39315;DHT22;28703;44.412;11.918;2023-10-08T02:49:15;18.20;99.90
39315;DHT22;28703;44.412;11.918;2023-10-08T02:51:52;18.20;99.90
39315;DHT22;28703;44.412;11.918;2023-10-08T02:54:20;18.20;99.90
39315;DHT22;28703;44.412;11.918;2023-10-08T02:56:53;18.20;99.90
39315;DHT22;28703;44.412;11.918;2023-10-08T02:59:23;18.30;99.90
39315;DHT22;28703;44.412;11.918;2023-10-08T03:01:50;18.20;99.90
39315;DHT22;28703;44.412;11.918;2023-10-08T03:04:18;18.20;99.90
39315;DHT22;28703;44.412;11.918;2023-10-08T03:06:48;18.30;99.90
39315;DHT22;28703;44.412;11.918;2023-10-08T03:09:21;18.20;99.90
39315;DHT22;28703;44.412;11.918;2023-10-08T03:11:50;18.20;99.90
39315;DHT22;28703;44.412;11.918;2023-10-08T03:14:17;18.20;99.90
39315;DHT22;28703;44.412;11.918;2023-10-08T03:16:50;18.20;99.90
39315;DHT22;28703;44.412;11.918;2023-10-08T03:19:18;18.20;99.90
39315;DHT22;28703;44.412;11.918;2023-10-08T03:21:49;18.10;99.90
39315;DHT22;28703;44.412;11.918;2023-10-08T03:24:21;18.10;99.90
39315;DHT22;28703;44.412;11.918;2023-10-08T03:26:59;18.10;99.90
39315;DHT22;28703;44.412;11.918;2023-10-08T03:29:36;18.10;99.90
39315;DHT22;28703;44.412;11.918;2023-10-08T03:32:10;18.10;99.90
39315;DHT22;28703;44.412;11.918;2023-10-08T03:34:50;18.10;99.90
39315;DHT22;28703;44.412;11.918;2023-10-08T03:37:22;18.10;99.90
39315;DHT22;28703;44.412;11.918;2023-10-08T03:39:55;18.10;99.90
39315;DHT22;28703;44.412;11.918;2023-10-08T03:42:48;18.10;99.90
39315;DHT22;28703;44.412;11.918;2023-10-08T03:45:15;18.00;99.90
39315;DHT22;28703;44.412;11.918;2023-10-08T03:47:48;18.10;99.90
39315;DHT22;28703;44.412;11.918;2023-10-08T03:50:29;18.00;99.90
39315;DHT22;28703;44.412;11.918;2023-10-08T03:52:58;18.00;99.90
39315;DHT22;28703;44.412;11.918;2023-10-08T03:55:24;18.10;99.90
39315;DHT22;28703;44.412;11.918;2023-10-08T03:57:52;18.00;99.90
39315;DHT22;28703;44.412;11.918;2023-10-08T04:00:29;18.10;99.90
39315;DHT22;28703;44.412;11.918;2023-10-08T04:02:57;18.10;99.90
39315;DHT22;28703;44.412;11.918;2023-10-08T04:05:27;18.00;99.90
39315;DHT22;28703;44.412;11.918;2023-10-08T04:07:53;18.10;99.90
39315;DHT22;28703;44.412;11.918;2023-10-08T04:10:27;18.00;99.90
39315;DHT22;28703;44.412;11.918;2023-10-08T04:13:09;18.00;99.90
39315;DHT22;28703;44.412;11.918;2023-10-08T04:15:38;18.00;99.90
39315;DHT22;28703;44.412;11.918;2023-10-08T04:18:11;18.00;99.90
39315;DHT22;28703;44.412;11.918;2023-10-08T04:20:38;18.00;99.90
39315;DHT22;28703;44.412;11.918;2023-10-08T04:23:10;17.90;99.90
39315;DHT22;28703;44.412;11.918;2023-10-08T04:25:39;17.90;99.90
39315;DHT22;28703;44.412;11.918;2023-10-08T04:28:08;17.90;99.90
39315;DHT22;28703;44.412;11.918;2023-10-08T04:30:39;17.90;99.90
39315;DHT22;28703;44.412;11.918;2023-10-08T04:33:08;17.90;99.90
39315;DHT22;28703;44.412;11.918;2023-10-08T04:35:37;17.80;99.90
39315;DHT22;28703;44.412;11.918;2023-10-08T04:38:28;17.80;99.90
39315;DHT22;28703;44.412;11.918;2023-10-08T04:40:55;17.80;99.90
39315;DHT22;28703;44.412;11.918;2023-10-08T04:43:24;17.70;99.90
39315;DHT22;28703;44.412;11.918;2023-10-08T04:45:54;17.70;99.90
39315;DHT22;28703;44.412;11.918;2023-10-08T04:48:24;17.70;99.90
39315;DHT22;28703;44.412;11.918;2023-10-08T04:50:51;17.70;99.90
39315;DHT22;28703;44.412;11.918;2023-10-08T04:53:28;17.70;99.90
39315;DHT22;28703;44.412;11.918;2023-10-08T04:56:01;17.80;99.90
39315;DHT22;28703;44.412;11.918;2023-10-08T04:58:46;17.80;99.90
39315;DHT22;28703;44.412;11.918;2023-10-08T05:01:14;17.80;99.90
39315;DHT22;28703;44.412;11.918;2023-10-08T05:04:00;17.80;99.90
39315;DHT22;28703;44.412;11.918;2023-10-08T05:06:27;17.80;99.90
39315;DHT22;28703;44.412;11.918;2023-10-08T05:09:05;17.80;99.90
39315;DHT22;28703;44.412;11.918;2023-10-08T05:11:51;17.80;99.90
39315;DHT22;28703;44.412;11.918;2023-10-08T05:14:21;17.70;99.90
39315;DHT22;28703;44.412;11.918;2023-10-08T05:17:06;17.70;99.90
39315;DHT22;28703;44.412;11.918;2023-10-08T05:19:35;17.70;99.90
39315;DHT22;28703;44.412;11.918;2023-10-08T05:22:11;17.60;99.90
39315;DHT22;28703;44.412;11.918;2023-10-08T05:24:58;17.60;99.90
39315;DHT22;28703;44.412;11.918;2023-10-08T05:27:37;17.60;99.90
39315;DHT22;28703;44.412;11.918;2023-10-08T05:30:07;17.60;99.90
39315;DHT22;28703;44.412;11.918;2023-10-08T05:32:43;17.60;99.90
39315;DHT22;28703;44.412;11.918;2023-10-08T05:35:28;17.70;99.90
39315;DHT22;28703;44.412;11.918;2023-10-08T05:38:18;17.70;99.90
39315;DHT22;28703;44.412;11.918;2023-10-08T05:40:57;17.70;99.90
39315;DHT22;28703;44.412;11.918;2023-10-08T05:43:29;17.60;99.90
39315;DHT22;28703;44.412;11.918;2023-10-08T05:48:47;17.60;99.90
39315;DHT22;28703;44.412;11.918;2023-10-08T05:51:40;17.60;99.90
39315;DHT22;28703;44.412;11.918;2023-10-08T05:54:15;17.60;99.90
39315;DHT22;28703;44.412;11.918;2023-10-08T05:57:02;17.60;99.90
39315;DHT22;28703;44.412;11.918;2023-10-08T05:59:33;17.60;99.90
39315;DHT22;28703;44.412;11.918;2023-10-08T06:02:06;17.60;99.90
39315;DHT22;28703;44.412;11.918;2023-10-08T06:04:52;17.60;99.90
39315;DHT22;28703;44.412;11.918;2023-10-08T06:07:53;17.60;99.90
39315;DHT22;28703;44.412;11.918;2023-10-08T06:10:31;17.60;99.90
39315;DHT22;28703;44.412;11.918;2023-10-08T06:13:05;17.60;99.90
39315;DHT22;28703;44.412;11.918;2023-10-08T06:15:40;17.60;99.90
39315;DHT22;28703;44.412;11.918;2023-10-08T06:18:18;17.70;99.90
39315;DHT22;28703;44.412;11.918;2023-10-08T06:20:47;17.70;99.90
39315;DHT22;28703;44.412;11.918;2023-10-08T06:23:15;17.70;99.90
39315;DHT22;28703;44.412;11.918;2023-10-08T06:25:44;17.70;99.90
39315;DHT22;28703;44.412;11.918;2023-10-08T06:28:15;17.80;99.90
39315;DHT22;28703;44.412;11.918;2023-10-08T06:30:44;17.80;99.90
39315;DHT22;28703;44.412;11.918;2023-10-08T06:33:10;17.90;99.90
39315;DHT22;28703;44.412;11.918;2023-10-08T06:35:36;17.90;99.90
39315;DHT22;28703;44.412;11.918;2023-10-08T06:38:02;18.00;99.90
39315;DHT22;28703;44.412;11.918;2023-10-08T06:40:36;18.00;99.90
39315;DHT22;28703;44.412;11.918;2023-10-08T06:43:03;18.00;99.90
39315;DHT22;28703;44.412;11.918;2023-10-08T06:45:44;18.10;99.90
39315;DHT22;28703;44.412;11.918;2023-10-08T06:48:13;18.20;99.90
39315;DHT22;28703;44.412;11.918;2023-10-08T06:50:45;18.20;99.90
39315;DHT22;28703;44.412;11.918;2023-10-08T06:53:11;18.20;99.90
39315;DHT22;28703;44.412;11.918;2023-10-08T06:55:41;18.30;99.90
39315;DHT22;28703;44.412;11.918;2023-10-08T06:58:07;18.30;99.90
39315;DHT22;28703;44.412;11.918;2023-10-08T07:00:37;18.30;99.90
39315;DHT22;28703;44.412;11.918;2023-10-08T07:03:12;18.40;99.90
39315;DHT22;28703;44.412;11.918;2023-10-08T07:05:51;18.40;99.90
39315;DHT22;28703;44.412;11.918;2023-10-08T07:08:24;18.50;99.90
39315;DHT22;28703;44.412;11.918;2023-10-08T07:10:51;18.60;99.90
39315;DHT22;28703;44.412;11.918;2023-10-08T07:13:18;18.60;99.90
39315;DHT22;28703;44.412;11.918;2023-10-08T07:15:51;18.70;99.90
39315;DHT22;28703;44.412;11.918;2023-10-08T07:18:18;18.80;99.90
39315;DHT22;28703;44.412;11.918;2023-10-08T07:20:52;18.80;99.90
39315;DHT22;28703;44.412;11.918;2023-10-08T07:23:22;18.90;99.90
39315;DHT22;28703;44.412;11.918;2023-10-08T07:25:53;18.90;99.90
39315;DHT22;28703;44.412;11.918;2023-10-08T07:28:23;19.00;99.90
39315;DHT22;28703;44.412;11.918;2023-10-08T07:30:51;19.00;99.90
39315;DHT22;28703;44.412;11.918;2023-10-08T07:33:18;19.10;99.90
39315;DHT22;28703;44.412;11.918;2023-10-08T07:35:45;19.20;99.90
39315;DHT22;28703;44.412;11.918;2023-10-08T07:38:17;19.30;99.90
39315;DHT22;28703;44.412;11.918;2023-10-08T07:40:43;19.40;99.90
39315;DHT22;28703;44.412;11.918;2023-10-08T07:43:10;19.40;99.90
39315;DHT22;28703;44.412;11.918;2023-10-08T07:45:36;19.50;99.90
39315;DHT22;28703;44.412;11.918;2023-10-08T07:48:02;19.60;99.90
39315;DHT22;28703;44.412;11.918;2023-10-08T07:50:35;19.70;99.90
39315;DHT22;28703;44.412;11.918;2023-10-08T07:53:04;19.80;99.90
39315;DHT22;28703;44.412;11.918;2023-10-08T07:55:30;19.80;99.90
39315;DHT22;28703;44.412;11.918;2023-10-08T07:57:58;19.90;99.90
39315;DHT22;28703;44.412;11.918;2023-10-08T08:00:25;20.00;99.90
39315;DHT22;28703;44.412;11.918;2023-10-08T08:02:56;20.10;99.90
39315;DHT22;28703;44.412;11.918;2023-10-08T08:05:23;20.10;99.90
39315;DHT22;28703;44.412;11.918;2023-10-08T08:07:49;20.20;99.90
39315;DHT22;28703;44.412;11.918;2023-10-08T08:10:19;20.30;99.90
39315;DHT22;28703;44.412;11.918;2023-10-08T08:12:45;20.40;99.90
39315;DHT22;28703;44.412;11.918;2023-10-08T08:15:11;20.40;99.90
39315;DHT22;28703;44.412;11.918;2023-10-08T08:17:42;20.50;99.90
39315;DHT22;28703;44.412;11.918;2023-10-08T08:20:08;20.60;99.90
39315;DHT22;28703;44.412;11.918;2023-10-08T08:22:44;20.70;99.90
39315;DHT22;28703;44.412;11.918;2023-10-08T08:25:19;20.80;99.90
39315;DHT22;28703;44.412;11.918;2023-10-08T08:28:08;20.90;99.90
39315;DHT22;28703;44.412;11.918;2023-10-08T08:30:43;21.00;99.90
39315;DHT22;28703;44.412;11.918;2023-10-08T08:33:13;21.10;99.90
39315;DHT22;28703;44.412;11.918;2023-10-08T08:35:42;21.20;99.90
39315;DHT22;28703;44.412;11.918;2023-10-08T08:38:08;21.30;99.90
39315;DHT22;28703;44.412;11.918;2023-10-08T08:40:34;21.40;99.90
39315;DHT22;28703;44.412;11.918;2023-10-08T08:43:00;21.50;99.90
39315;DHT22;28703;44.412;11.918;2023-10-08T08:45:31;21.60;99.90
39315;DHT22;28703;44.412;11.918;2023-10-08T08:48:00;21.60;99.90
39315;DHT22;28703;44.412;11.918;2023-10-08T08:50:26;21.70;99.90
39315;DHT22;28703;44.412;11.918;2023-10-08T08:52:52;21.80;99.90
39315;DHT22;28703;44.412;11.918;2023-10-08T08:55:18;21.90;99.90
39315;DHT22;28703;44.412;11.918;2023-10-08T08:57:50;22.00;99.90
39315;DHT22;28703;44.412;11.918;2023-10-08T09:00:18;22.00;99.90
39315;DHT22;28703;44.412;11.918;2023-10-08T09:02:45;22.10;99.90
39315;DHT22;28703;44.412;11.918;2023-10-08T09:05:13;22.10;99.90
39315;DHT22;28703;44.412;11.918;2023-10-08T09:08:11;22.20;99.90
39315;DHT22;28703;44.412;11.918;2023-10-08T09:10:38;22.30;99.90
39315;DHT22;28703;44.412;11.918;2023-10-08T09:13:22;22.40;99.90
39315;DHT22;28703;44.412;11.918;2023-10-08T09:15:51;22.50;99.90
39315;DHT22;28703;44.412;11.918;2023-10-08T09:18:17;22.60;99.90
39315;DHT22;28703;44.412;11.918;2023-10-08T09:20:43;22.60;99.90
39315;DHT22;28703;44.412;11.918;2023-10-08T09:23:11;22.80;99.90
39315;DHT22;28703;44.412;11.918;2023-10-08T09:25:41;22.90;99.90
39315;DHT22;28703;44.412;11.918;2023-10-08T09:28:07;22.90;99.70
39315;DHT22;28703;44.412;11.918;2023-10-08T09:30:36;23.00;99.90
39315;DHT22;28703;44.412;11.918;2023-10-08T09:33:07;23.10;99.60
39315;DHT22;28703;44.412;11.918;2023-10-08T09:35:34;23.10;99.50
39315;DHT22;28703;44.412;11.918;2023-10-08T09:38:03;23.20;99.40
39315;DHT22;28703;44.412;11.918;2023-10-08T09:40:29;23.30;99.30
39315;DHT22;28703;44.412;11.918;2023-10-08T09:42:55;23.30;99.40
39315;DHT22;28703;44.412;11.918;2023-10-08T09:45:22;23.30;99.10
39315;DHT22;28703;44.412;11.918;2023-10-08T09:47:59;23.40;99.30
39315;DHT22;28703;44.412;11.918;2023-10-08T09:50:32;23.50;99.10
39315;DHT22;28703;44.412;11.918;2023-10-08T09:53:03;23.60;98.90
39315;DHT22;28703;44.412;11.918;2023-10-08T09:55:33;23.60;98.70
39315;DHT22;28703;44.412;11.918;2023-10-08T09:58:01;23.70;99.00
39315;DHT22;28703;44.412;11.918;2023-10-08T10:00:28;23.80;98.70
39315;DHT22;28703;44.412;11.918;2023-10-08T10:03:02;23.90;98.40
39315;DHT22;28703;44.412;11.918;2023-10-08T10:05:32;23.90;98.10
39315;DHT22;28703;44.412;11.918;2023-10-08T10:08:02;24.00;98.10
39315;DHT22;28703;44.412;11.918;2023-10-08T10:10:32;24.00;97.90
39315;DHT22;28703;44.412;11.918;2023-10-08T10:13:09;24.10;98.00
39315;DHT22;28703;44.412;11.918;2023-10-08T10:15:39;24.10;97.90
39315;DHT22;28703;44.412;11.918;2023-10-08T10:18:13;24.20;97.70
39315;DHT22;28703;44.412;11.918;2023-10-08T10:20:44;24.20;97.70
39315;DHT22;28703;44.412;11.918;2023-10-08T10:23:37;24.20;97.40
39315;DHT22;28703;44.412;11.918;2023-10-08T10:26:03;24.30;97.00
39315;DHT22;28703;44.412;11.918;2023-10-08T10:28:30;24.20;96.80
39315;DHT22;28703;44.412;11.918;2023-10-08T10:30:56;24.20;97.00
39315;DHT22;28703;44.412;11.918;2023-10-08T10:33:30;24.30;97.10
39315;DHT22;28703;44.412;11.918;2023-10-08T10:35:56;24.30;96.80
39315;DHT22;28703;44.412;11.918;2023-10-08T10:38:22;24.30;96.60
39315;DHT22;28703;44.412;11.918;2023-10-08T10:40:52;24.40;96.30
39315;DHT22;28703;44.412;11.918;2023-10-08T10:43:25;24.40;96.40
39315;DHT22;28703;44.412;11.918;2023-10-08T10:45:59;24.40;96.40
39315;DHT22;28703;44.412;11.918;2023-10-08T10:48:31;24.50;95.80
39315;DHT22;28703;44.412;11.918;2023-10-08T10:51:00;24.50;96.20
39315;DHT22;28703;44.412;11.918;2023-10-08T10:53:39;24.50;95.90
39315;DHT22;28703;44.412;11.918;2023-10-08T10:56:22;24.60;96.10
39315;DHT22;28703;44.412;11.918;2023-10-08T10:59:03;24.60;95.90
39315;DHT22;28703;44.412;11.918;2023-10-08T11:01:52;24.60;95.80
39315;DHT22;28703;44.412;11.918;2023-10-08T11:04:21;24.60;95.70
39315;DHT22;28703;44.412;11.918;2023-10-08T11:06:55;24.60;95.70
39315;DHT22;28703;44.412;11.918;2023-10-08T11:09:25;24.60;95.30
39315;DHT22;28703;44.412;11.918;2023-10-08T11:12:10;24.70;95.30
39315;DHT22;28703;44.412;11.918;2023-10-08T11:14:42;24.70;95.10
39315;DHT22;28703;44.412;11.918;2023-10-08T11:17:12;24.80;95.20
39315;DHT22;28703;44.412;11.918;2023-10-08T11:19:42;24.80;94.80
39315;DHT22;28703;44.412;11.918;2023-10-08T11:22:08;24.90;94.80
39315;DHT22;28703;44.412;11.918;2023-10-08T11:24:42;24.90;94.60
39315;DHT22;28703;44.412;11.918;2023-10-08T11:27:10;25.00;94.50
39315;DHT22;28703;44.412;11.918;2023-10-08T11:29:47;25.10;94.20
39315;DHT22;28703;44.412;11.918;2023-10-08T11:32:15;25.10;93.80
39315;DHT22;28703;44.412;11.918;2023-10-08T11:34:46;25.20;93.90
39315;DHT22;28703;44.412;11.918;2023-10-08T11:37:29;25.30;93.70
39315;DHT22;28703;44.412;11.918;2023-10-08T11:39:56;25.40;93.30
39315;DHT22;28703;44.412;11.918;2023-10-08T11:42:25;25.40;93.20
39315;DHT22;28703;44.412;11.918;2023-10-08T11:45:07;25.40;93.50
39315;DHT22;28703;44.412;11.918;2023-10-08T11:47:50;25.60;93.40
39315;DHT22;28703;44.412;11.918;2023-10-08T11:50:25;25.60;93.30
39315;DHT22;28703;44.412;11.918;2023-10-08T11:53:01;25.70;92.70
39315;DHT22;28703;44.412;11.918;2023-10-08T11:55:29;25.70;93.00
39315;DHT22;28703;44.412;11.918;2023-10-08T11:57:55;25.80;92.90
39315;DHT22;28703;44.412;11.918;2023-10-08T12:00:22;25.90;92.70
39315;DHT22;28703;44.412;11.918;2023-10-08T12:02:51;25.90;92.20
39315;DHT22;28703;44.412;11.918;2023-10-08T12:05:21;26.00;92.30
39315;DHT22;28703;44.412;11.918;2023-10-08T12:07:51;26.10;92.20
39315;DHT22;28703;44.412;11.918;2023-10-08T12:10:20;26.20;92.00
39315;DHT22;28703;44.412;11.918;2023-10-08T12:12:51;26.30;92.10
39315;DHT22;28703;44.412;11.918;2023-10-08T12:15:24;26.40;92.20
39315;DHT22;28703;44.412;11.918;2023-10-08T12:18:00;26.50;92.20
39315;DHT22;28703;44.412;11.918;2023-10-08T12:20:41;26.60;92.30
39315;DHT22;28703;44.412;11.918;2023-10-08T12:23:10;26.60;91.90
39315;DHT22;28703;44.412;11.918;2023-10-08T12:25:55;26.60;91.80
39315;DHT22;28703;44.412;11.918;2023-10-08T12:28:26;26.70;91.60
39315;DHT22;28703;44.412;11.918;2023-10-08T12:30:53;26.80;91.60
39315;DHT22;28703;44.412;11.918;2023-10-08T12:33:20;26.80;91.50
39315;DHT22;28703;44.412;11.918;2023-10-08T12:35:48;26.90;91.00
39315;DHT22;28703;44.412;11.918;2023-10-08T12:38:14;26.90;90.60
39315;DHT22;28703;44.412;11.918;2023-10-08T12:40:41;26.90;90.60
39315;DHT22;28703;44.412;11.918;2023-10-08T12:43:23;27.00;90.80
39315;DHT22;28703;44.412;11.918;2023-10-08T12:45:53;27.10;90.00
39315;DHT22;28703;44.412;11.918;2023-10-08T12:48:21;27.10;90.00
39315;DHT22;28703;44.412;11.918;2023-10-08T12:50:48;27.20;90.10
39315;DHT22;28703;44.412;11.918;2023-10-08T12:53:26;27.20;90.20
39315;DHT22;28703;44.412;11.918;2023-10-08T12:55:55;27.30;89.40
39315;DHT22;28703;44.412;11.918;2023-10-08T12:58:24;27.30;88.70
39315;DHT22;28703;44.412;11.918;2023-10-08T13:00:54;27.30;88.80
39315;DHT22;28703;44.412;11.918;2023-10-08T13:03:25;27.50;88.50
39315;DHT22;28703;44.412;11.918;2023-10-08T13:05:55;27.50;87.30
39315;DHT22;28703;44.412;11.918;2023-10-08T13:08:32;27.60;87.00
39315;DHT22;28703;44.412;11.918;2023-10-08T13:11:01;27.70;86.20
39315;DHT22;28703;44.412;11.918;2023-10-08T13:13:28;27.80;83.90
39315;DHT22;28703;44.412;11.918;2023-10-08T13:15:55;27.80;84.40
39315;DHT22;28703;44.412;11.918;2023-10-08T13:18:25;27.90;84.80
39315;DHT22;28703;44.412;11.918;2023-10-08T13:20:54;28.00;85.20
39315;DHT22;28703;44.412;11.918;2023-10-08T13:23:20;28.10;84.60
39315;DHT22;28703;44.412;11.918;2023-10-08T13:25:49;28.20;85.30
39315;DHT22;28703;44.412;11.918;2023-10-08T13:28:20;28.30;85.30
39315;DHT22;28703;44.412;11.918;2023-10-08T13:30:47;28.30;84.10
39315;DHT22;28703;44.412;11.918;2023-10-08T13:33:12;28.40;83.50
39315;DHT22;28703;44.412;11.918;2023-10-08T13:35:38;28.40;83.30
39315;DHT22;28703;44.412;11.918;2023-10-08T13:38:04;28.40;82.20
39315;DHT22;28703;44.412;11.918;2023-10-08T13:40:35;28.40;81.40
39315;DHT22;28703;44.412;11.918;2023-10-08T13:43:08;28.40;81.00
39315;DHT22;28703;44.412;11.918;2023-10-08T13:45:37;28.50;80.80
39315;DHT22;28703;44.412;11.918;2023-10-08T13:48:05;28.50;81.80
39315;DHT22;28703;44.412;11.918;2023-10-08T13:50:32;28.50;80.00
39315;DHT22;28703;44.412;11.918;2023-10-08T13:52:57;28.50;80.70
39315;DHT22;28703;44.412;11.918;2023-10-08T13:55:24;28.60;80.90
39315;DHT22;28703;44.412;11.918;2023-10-08T13:57:53;28.60;80.80
39315;DHT22;28703;44.412;11.918;2023-10-08T14:00:20;28.60;79.80
39315;DHT22;28703;44.412;11.918;2023-10-08T14:02:51;28.60;80.40
39315;DHT22;28703;44.412;11.918;2023-10-08T14:05:21;28.60;80.70
39315;DHT22;28703;44.412;11.918;2023-10-08T14:07:52;28.60;80.80
39315;DHT22;28703;44.412;11.918;2023-10-08T14:10:18;28.60;80.30
39315;DHT22;28703;44.412;11.918;2023-10-08T14:12:45;28.60;80.20
39315;DHT22;28703;44.412;11.918;2023-10-08T14:15:17;28.70;80.60
39315;DHT22;28703;44.412;11.918;2023-10-08T14:17:46;28.70;80.60
39315;DHT22;28703;44.412;11.918;2023-10-08T14:24:00;29.00;80.30
39315;DHT22;28703;44.412;11.918;2023-10-08T14:26:29;29.00;80.50
39315;DHT22;28703;44.412;11.918;2023-10-08T14:29:02;29.10;80.40
39315;DHT22;28703;44.412;11.918;2023-10-08T14:31:36;29.10;80.20
39315;DHT22;28703;44.412;11.918;2023-10-08T14:34:04;29.20;79.90
39315;DHT22;28703;44.412;11.918;2023-10-08T14:36:34;29.30;80.00
39315;DHT22;28703;44.412;11.918;2023-10-08T14:39:19;29.30;79.50
39315;DHT22;28703;44.412;11.918;2023-10-08T14:42:03;29.30;79.20
39315;DHT22;28703;44.412;11.918;2023-10-08T14:44:48;29.30;79.20
39315;DHT22;28703;44.412;11.918;2023-10-08T14:47:16;29.30;79.90
39315;DHT22;28703;44.412;11.918;2023-10-08T14:49:42;29.40;80.20
39315;DHT22;28703;44.412;11.918;2023-10-08T14:52:12;29.40;79.60
39315;DHT22;28703;44.412;11.918;2023-10-08T14:54:37;29.50;79.40
39315;DHT22;28703;44.412;11.918;2023-10-08T14:57:04;29.50;79.40
39315;DHT22;28703;44.412;11.918;2023-10-08T14:59:34;29.60;79.50
39315;DHT22;28703;44.412;11.918;2023-10-08T15:01:59;29.70;80.00
39315;DHT22;28703;44.412;11.918;2023-10-08T15:04:25;29.80;80.00
39315;DHT22;28703;44.412;11.918;2023-10-08T15:06:55;29.90;80.10
39315;DHT22;28703;44.412;11.918;2023-10-08T15:09:22;29.90;79.70
39315;DHT22;28703;44.412;11.918;2023-10-08T15:11:52;30.00;79.50
39315;DHT22;28703;44.412;11.918;2023-10-08T15:14:22;30.00;79.20
39315;DHT22;28703;44.412;11.918;2023-10-08T15:16:52;30.10;78.40
39315;DHT22;28703;44.412;11.918;2023-10-08T15:19:19;30.10;78.00
39315;DHT22;28703;44.412;11.918;2023-10-08T15:21:46;30.00;78.00
39315;DHT22;28703;44.412;11.918;2023-10-08T15:24:22;30.00;78.00
39315;DHT22;28703;44.412;11.918;2023-10-08T15:26:52;30.00;77.40
39315;DHT22;28703;44.412;11.918;2023-10-08T15:29:20;30.10;77.70
39315;DHT22;28703;44.412;11.918;2023-10-08T15:31:49;30.20;77.70
39315;DHT22;28703;44.412;11.918;2023-10-08T15:34:16;30.40;77.70
39315;DHT22;28703;44.412;11.918;2023-10-08T15:36:42;30.50;77.50
39315;DHT22;28703;44.412;11.918;2023-10-08T15:39:08;30.50;77.40
39315;DHT22;28703;44.412;11.918;2023-10-08T15:41:38;30.60;77.40
39315;DHT22;28703;44.412;11.918;2023-10-08T15:44:05;30.70;77.20
39315;DHT22;28703;44.412;11.918;2023-10-08T15:46:34;30.70;77.30
39315;DHT22;28703;44.412;11.918;2023-10-08T15:49:03;30.80;77.30